createdAt,value
2018-09-10T00:02:23.622Z,24.35
2018-09-10T00:07:27.078Z,24.35
2018-09-10T00:12:30.530Z,24.32
2018-09-10T00:17:33.986Z,24.31
2018-09-10T00:22:37.425Z,24.29
2018-09-10T00:27:40.881Z,24.27
2018-09-10T00:32:44.335Z,24.27
2018-09-10T00:37:47.816Z,24.27
2018-09-10T00:42:51.290Z,24.25
2018-09-10T00:47:54.788Z,24.25
2018-09-10T00:52:58.232Z,24.22
2018-09-10T00:58:01.684Z,24.22
2018-09-10T01:03:05.195Z,24.19
2018-09-10T01:08:08.724Z,24.18
2018-09-10T01:13:12.190Z,24.17
2018-09-10T01:18:15.641Z,24.16
2018-09-10T01:23:19.102Z,24.15
2018-09-10T01:28:22.575Z,24.13
2018-09-10T01:33:31.399Z,24.12
2018-09-10T01:38:34.839Z,24.11
2018-09-10T01:43:38.267Z,24.10
2018-09-10T01:48:41.955Z,24.08
2018-09-10T01:53:45.411Z,24.08
2018-09-10T01:58:49.135Z,24.08
2018-09-10T02:03:52.599Z,24.06
2018-09-10T02:08:56.091Z,24.06
2018-09-10T02:13:59.543Z,24.05
2018-09-10T02:19:02.991Z,23.97
2018-09-10T02:24:06.529Z,24.03
2018-09-10T02:29:09.985Z,24.03
2018-09-10T02:34:13.480Z,24.01
2018-09-10T02:39:16.976Z,24.00
2018-09-10T02:44:20.427Z,23.99
2018-09-10T02:49:23.893Z,23.97
2018-09-10T02:54:27.320Z,23.97
2018-09-10T02:59:30.760Z,23.96
2018-09-10T03:04:34.210Z,23.95
2018-09-10T03:09:37.649Z,23.93
2018-09-10T03:14:41.114Z,23.92
2018-09-10T03:19:44.586Z,23.86
2018-09-10T03:24:48.044Z,23.81
2018-09-10T03:29:51.547Z,23.73
2018-09-10T03:34:55.213Z,23.66
2018-09-10T03:39:58.703Z,23.62
2018-09-10T03:45:02.181Z,23.57
2018-09-10T03:50:06.776Z,23.54
2018-09-10T03:55:10.241Z,23.45
2018-09-10T04:00:13.710Z,23.46
2018-09-10T04:05:17.175Z,23.35
2018-09-10T04:10:20.642Z,23.30
2018-09-10T04:15:24.102Z,23.27
2018-09-10T04:20:27.552Z,23.21
2018-09-10T04:25:31.007Z,23.16
2018-09-10T04:30:34.462Z,23.15
2018-09-10T04:35:37.934Z,23.11
2018-09-10T04:40:41.379Z,23.08
2018-09-10T04:45:44.818Z,23.04
2018-09-10T04:50:48.262Z,22.99
2018-09-10T04:55:51.838Z,22.98
2018-09-10T05:00:55.322Z,22.94
2018-09-10T05:05:58.871Z,22.91
2018-09-10T05:11:02.326Z,22.89
2018-09-10T05:16:05.790Z,22.87
2018-09-10T05:21:09.237Z,22.85
2018-09-10T05:26:12.707Z,22.84
2018-09-10T05:31:16.169Z,22.81
2018-09-10T05:36:19.631Z,22.80
2018-09-10T05:41:23.117Z,22.79
2018-09-10T05:46:26.563Z,22.78
2018-09-10T05:51:29.994Z,22.76
2018-09-10T05:56:33.551Z,22.77
2018-09-10T06:01:37.002Z,22.75
2018-09-10T06:06:40.451Z,22.74
2018-09-10T06:11:43.918Z,22.74
2018-09-10T06:16:47.456Z,22.74
2018-09-10T06:21:50.880Z,22.75
2018-09-10T06:26:54.339Z,22.74
2018-09-10T06:31:57.775Z,22.75
2018-09-10T06:37:01.323Z,22.75
2018-09-10T06:42:04.718Z,22.76
2018-09-10T06:47:08.159Z,22.78
2018-09-10T06:52:11.627Z,22.79
2018-09-10T06:57:15.080Z,22.82
2018-09-10T07:02:18.528Z,22.64
2018-09-10T07:07:22.228Z,21.67
2018-09-10T07:12:26.088Z,21.49
2018-09-10T07:17:29.540Z,21.56
2018-09-10T07:22:33.549Z,21.37
2018-09-10T07:27:37.054Z,21.28
2018-09-10T07:32:40.520Z,21.38
2018-09-10T07:37:44.383Z,21.46
2018-09-10T07:42:47.870Z,21.44
2018-09-10T07:47:52.290Z,21.45
2018-09-10T07:52:55.706Z,21.60
2018-09-10T07:57:59.149Z,21.59
2018-09-10T08:03:02.643Z,21.69
2018-09-10T08:08:06.232Z,21.74
2018-09-10T08:13:09.674Z,21.84
2018-09-10T08:18:13.141Z,21.83
2018-09-10T08:23:16.592Z,21.98
2018-09-10T08:28:20.057Z,22.05
2018-09-10T08:33:23.512Z,22.09
2018-09-10T08:38:26.988Z,22.13
2018-09-10T08:43:30.424Z,22.21
2018-09-10T08:48:33.912Z,22.25
2018-09-10T08:53:37.451Z,22.27
2018-09-10T08:58:41.069Z,22.35
2018-09-10T09:03:44.544Z,22.40
2018-09-10T09:08:48.015Z,22.39
2018-09-10T09:13:51.450Z,22.47
2018-09-10T09:18:54.905Z,22.53
2018-09-10T09:23:58.400Z,22.52
2018-09-10T09:29:01.878Z,22.54
2018-09-10T09:34:05.345Z,22.55
2018-09-10T09:39:13.984Z,22.53
2018-09-10T09:44:22.633Z,22.57
2018-09-10T09:49:26.095Z,22.62
2018-09-10T09:54:29.555Z,22.71
2018-09-10T09:59:33.005Z,22.84
2018-09-10T10:04:36.596Z,23.04
2018-09-10T10:09:40.030Z,23.05
2018-09-10T10:14:43.525Z,23.08
2018-09-10T10:19:46.997Z,23.16
2018-09-10T10:24:50.469Z,23.16
2018-09-10T10:29:54.216Z,23.24
2018-09-10T10:34:57.719Z,23.27
2018-09-10T10:40:01.202Z,23.32
2018-09-10T10:45:04.802Z,23.32
2018-09-10T10:50:08.300Z,23.30
2018-09-10T10:55:11.785Z,23.47
2018-09-10T11:00:15.279Z,23.57
2018-09-10T11:05:19.135Z,23.57
2018-09-10T11:10:22.677Z,23.54
2018-09-10T11:15:26.288Z,23.58
2018-09-10T11:20:29.771Z,23.62
2018-09-10T11:25:33.297Z,23.64
2018-09-10T11:30:36.765Z,23.65
2018-09-10T11:35:40.234Z,23.69
2018-09-10T11:40:43.711Z,23.64
2018-09-10T11:45:47.931Z,23.70
2018-09-10T11:50:51.954Z,23.67
2018-09-10T11:55:55.422Z,23.76
2018-09-10T12:00:58.892Z,23.86
2018-09-10T12:06:02.364Z,23.77
2018-09-10T12:11:06.108Z,23.94
2018-09-10T12:16:09.571Z,23.92
2018-09-10T12:21:13.052Z,23.85
2018-09-10T12:26:16.539Z,23.83
2018-09-10T12:31:20.008Z,23.80
2018-09-10T12:36:23.510Z,23.88
2018-09-10T12:41:27.034Z,23.84
2018-09-10T12:46:30.492Z,23.89
2018-09-10T12:51:33.972Z,24.08
2018-09-10T12:56:37.431Z,24.06
2018-09-10T13:01:40.915Z,24.08
2018-09-10T13:06:44.369Z,24.01
2018-09-10T13:11:47.918Z,23.95
2018-09-10T13:16:51.415Z,23.95
2018-09-10T13:21:54.915Z,23.98
2018-09-10T13:26:58.392Z,24.04
2018-09-10T13:32:01.943Z,24.02
2018-09-10T13:37:05.431Z,24.00
2018-09-10T13:47:18.642Z,23.94
2018-09-10T13:52:22.099Z,23.95
2018-09-10T13:57:25.570Z,23.97
2018-09-10T14:02:29.065Z,24.02
2018-09-10T14:07:32.553Z,24.00
2018-09-10T14:12:36.032Z,24.07
2018-09-10T14:17:39.554Z,24.07
2018-09-10T14:22:43.092Z,24.03
2018-09-10T14:27:46.623Z,24.07
2018-09-10T14:32:50.261Z,24.10
2018-09-10T14:37:53.719Z,24.17
2018-09-10T14:42:57.160Z,24.22
2018-09-10T14:48:00.595Z,24.29
2018-09-10T14:53:04.094Z,24.29
2018-09-10T14:58:07.644Z,24.36
2018-09-10T15:03:11.258Z,24.38
2018-09-10T15:08:14.769Z,24.42
2018-09-10T15:13:18.218Z,24.46
2018-09-10T15:18:21.752Z,24.48
2018-09-10T15:23:25.440Z,24.56
2018-09-10T15:28:29.048Z,24.59
2018-09-10T15:33:33.348Z,24.61
2018-09-10T15:38:36.805Z,24.66
2018-09-10T15:43:40.359Z,24.68
2018-09-10T15:48:43.953Z,24.72
2018-09-10T15:53:47.384Z,24.75
2018-09-10T15:58:53.198Z,24.82
2018-09-10T16:03:56.945Z,24.90
2018-09-10T16:09:00.443Z,24.97
2018-09-10T16:14:03.903Z,25.06
2018-09-10T16:19:07.400Z,25.06
2018-09-10T16:24:10.965Z,25.05
2018-09-10T16:29:14.608Z,25.03
2018-09-10T16:34:18.280Z,25.04
2018-09-10T16:39:21.871Z,25.04
2018-09-10T16:44:25.638Z,25.06
2018-09-10T16:49:29.203Z,25.08
2018-09-10T16:54:32.948Z,25.11
2018-09-10T16:59:37.561Z,25.07
2018-09-10T17:04:41.177Z,25.12
2018-09-10T17:09:44.735Z,25.09
2018-09-10T17:14:48.490Z,25.12
2018-09-10T17:19:52.026Z,25.04
2018-09-10T17:24:55.544Z,25.02
2018-09-10T17:29:59.316Z,25.01
2018-09-10T17:35:03.259Z,24.89
2018-09-10T17:40:06.754Z,24.91
2018-09-10T17:45:10.301Z,25.01
2018-09-10T17:50:13.849Z,24.94
2018-09-10T17:55:17.842Z,24.90
2018-09-10T18:00:21.301Z,24.87
2018-09-10T18:05:24.872Z,24.89
2018-09-10T18:10:28.311Z,24.89
2018-09-10T18:15:31.759Z,24.87
2018-09-10T18:20:35.617Z,24.73
2018-09-10T18:25:39.133Z,24.66
2018-09-10T18:30:42.686Z,24.64
2018-09-10T18:35:46.142Z,24.82
2018-09-10T18:40:49.676Z,24.61
2018-09-10T18:45:53.273Z,24.69
2018-09-10T18:50:56.726Z,24.55
2018-09-10T18:56:00.271Z,24.49
2018-09-10T19:01:04.290Z,24.48
2018-09-10T19:06:07.722Z,24.50
2018-09-10T19:11:11.262Z,24.42
2018-09-10T19:16:15.234Z,24.39
2018-09-10T19:21:19.311Z,24.38
2018-09-10T19:26:22.827Z,24.43
2018-09-10T19:31:26.809Z,24.40
2018-09-10T19:36:31.306Z,24.41
2018-09-10T19:41:35.475Z,24.42
2018-09-10T19:46:39.442Z,24.60
2018-09-10T19:51:42.920Z,24.48
2018-09-10T19:56:46.365Z,24.42
2018-09-10T20:01:49.831Z,24.37
2018-09-10T20:06:53.942Z,24.42
2018-09-10T20:11:59.056Z,24.50
2018-09-10T20:17:02.731Z,24.41
2018-09-10T20:22:07.302Z,24.38
2018-09-10T20:27:10.864Z,24.32
2018-09-10T20:32:14.461Z,24.40
2018-09-10T20:37:17.921Z,24.42
2018-09-10T20:42:21.445Z,24.35
2018-09-10T20:47:24.994Z,24.29
2018-09-10T20:52:28.582Z,24.38
2018-09-10T20:57:32.159Z,24.26
2018-09-10T21:02:35.752Z,24.22
2018-09-10T21:07:39.368Z,24.11
2018-09-10T21:12:42.987Z,24.05
2018-09-10T21:17:46.539Z,24.05
2018-09-10T21:22:50.059Z,24.11
2018-09-10T21:27:53.567Z,24.08
2018-09-10T21:32:57.133Z,24.06
2018-09-10T21:38:00.885Z,24.16
2018-09-10T21:43:04.412Z,24.07
2018-09-10T21:48:07.904Z,23.92
2018-09-10T21:53:11.352Z,23.84
2018-09-10T22:03:24.596Z,23.81
2018-09-10T22:08:28.212Z,23.91
2018-09-10T22:13:31.930Z,23.92
2018-09-10T22:18:35.530Z,23.80
2018-09-10T22:23:39.080Z,23.74
2018-09-10T22:28:42.718Z,23.83
2018-09-10T22:33:46.198Z,23.80
2018-09-10T22:38:49.831Z,23.83
2018-09-10T22:43:53.449Z,23.80
2018-09-10T22:48:57.276Z,23.74
2018-09-10T22:54:00.803Z,23.85
2018-09-10T22:59:04.446Z,23.85
2018-09-10T23:04:07.904Z,23.78
2018-09-10T23:09:11.400Z,23.68
2018-09-10T23:14:14.849Z,23.68
2018-09-10T23:19:18.336Z,23.65
2018-09-10T23:24:21.806Z,23.81
2018-09-10T23:29:25.318Z,23.77
2018-09-10T23:34:28.799Z,23.68
2018-09-10T23:39:32.275Z,23.82
2018-09-10T23:44:35.743Z,23.89
2018-09-10T23:49:39.202Z,23.75
2018-09-10T23:54:42.644Z,23.69
2018-09-10T23:59:46.126Z,23.78
